sensor_id;sensor_type;location;lat;lon;timestamp;temperature;humidity
10702;DHT22;5402;50.004;8.246;2024-01-30T00:01:02;1.20;99.90
10702;DHT22;5402;50.004;8.246;2024-01-30T00:03:29;1.20;99.90
10702;DHT22;5402;50.004;8.246;2024-01-30T00:05:56;1.10;99.90
10702;DHT22;5402;50.004;8.246;2024-01-30T00:08:24;1.10;99.90
10702;DHT22;5402;50.004;8.246;2024-01-30T00:10:51;1.10;99.90
10702;DHT22;5402;50.004;8.246;2024-01-30T00:13:17;1.20;99.90
10702;DHT22;5402;50.004;8.246;2024-01-30T00:15:45;1.10;99.90
10702;DHT22;5402;50.004;8.246;2024-01-30T00:18:12;1.20;99.90
10702;DHT22;5402;50.004;8.246;2024-01-30T00:20:38;1.10;99.90
10702;DHT22;5402;50.004;8.246;2024-01-30T00:23:05;1.10;99.90
10702;DHT22;5402;50.004;8.246;2024-01-30T00:25:33;1.10;99.90
10702;DHT22;5402;50.004;8.246;2024-01-30T00:28:01;1.00;99.90
10702;DHT22;5402;50.004;8.246;2024-01-30T00:30:28;1.10;99.90
10702;DHT22;5402;50.004;8.246;2024-01-30T00:32:55;1.10;99.90
10702;DHT22;5402;50.004;8.246;2024-01-30T00:35:21;1.10;99.90
10702;DHT22;5402;50.004;8.246;2024-01-30T00:37:48;1.10;99.90
10702;DHT22;5402;50.004;8.246;2024-01-30T00:40:17;1.10;99.90
10702;DHT22;5402;50.004;8.246;2024-01-30T00:42:45;1.10;99.90
10702;DHT22;5402;50.004;8.246;2024-01-30T00:45:13;1.10;99.90
10702;DHT22;5402;50.004;8.246;2024-01-30T00:47:40;1.00;99.90
10702;DHT22;5402;50.004;8.246;2024-01-30T00:50:09;1.10;99.90
10702;DHT22;5402;50.004;8.246;2024-01-30T00:52:36;0.90;99.90
10702;DHT22;5402;50.004;8.246;2024-01-30T00:55:05;0.80;99.90
10702;DHT22;5402;50.004;8.246;2024-01-30T00:57:32;0.80;99.90
10702;DHT22;5402;50.004;8.246;2024-01-30T01:00:00;0.80;99.90
10702;DHT22;5402;50.004;8.246;2024-01-30T01:02:26;0.80;99.90
10702;DHT22;5402;50.004;8.246;2024-01-30T01:04:53;0.80;99.90
10702;DHT22;5402;50.004;8.246;2024-01-30T01:07:20;0.80;99.90
10702;DHT22;5402;50.004;8.246;2024-01-30T01:09:47;0.80;99.90
10702;DHT22;5402;50.004;8.246;2024-01-30T01:12:13;0.90;99.90
10702;DHT22;5402;50.004;8.246;2024-01-30T01:14:41;0.90;99.90
10702;DHT22;5402;50.004;8.246;2024-01-30T01:17:09;0.90;99.90
10702;DHT22;5402;50.004;8.246;2024-01-30T01:19:36;0.90;99.90
10702;DHT22;5402;50.004;8.246;2024-01-30T01:22:02;0.90;99.90
10702;DHT22;5402;50.004;8.246;2024-01-30T01:24:31;0.90;99.90
10702;DHT22;5402;50.004;8.246;2024-01-30T01:26:58;1.00;99.90
10702;DHT22;5402;50.004;8.246;2024-01-30T01:29:24;0.80;99.90
10702;DHT22;5402;50.004;8.246;2024-01-30T01:31:54;0.90;99.90
10702;DHT22;5402;50.004;8.246;2024-01-30T01:34:22;0.80;99.90
10702;DHT22;5402;50.004;8.246;2024-01-30T01:36:49;0.80;99.90
10702;DHT22;5402;50.004;8.246;2024-01-30T01:39:16;0.70;99.90
10702;DHT22;5402;50.004;8.246;2024-01-30T01:41:43;0.70;99.90
10702;DHT22;5402;50.004;8.246;2024-01-30T01:44:10;0.70;99.90
10702;DHT22;5402;50.004;8.246;2024-01-30T01:46:37;0.60;99.90
10702;DHT22;5402;50.004;8.246;2024-01-30T01:49:05;0.60;99.90
10702;DHT22;5402;50.004;8.246;2024-01-30T01:51:35;0.70;99.90
10702;DHT22;5402;50.004;8.246;2024-01-30T01:54:04;0.60;99.90
10702;DHT22;5402;50.004;8.246;2024-01-30T01:56:31;0.60;99.90
10702;DHT22;5402;50.004;8.246;2024-01-30T01:59:07;0.60;99.90
10702;DHT22;5402;50.004;8.246;2024-01-30T02:01:35;0.60;99.90
10702;DHT22;5402;50.004;8.246;2024-01-30T02:04:03;0.60;99.90
10702;DHT22;5402;50.004;8.246;2024-01-30T02:06:30;0.60;99.90
10702;DHT22;5402;50.004;8.246;2024-01-30T02:08:58;0.60;99.90
10702;DHT22;5402;50.004;8.246;2024-01-30T02:11:25;0.60;99.90
10702;DHT22;5402;50.004;8.246;2024-01-30T02:13:52;0.60;99.90
10702;DHT22;5402;50.004;8.246;2024-01-30T02:16:19;0.50;99.90
10702;DHT22;5402;50.004;8.246;2024-01-30T02:18:46;0.60;99.90
10702;DHT22;5402;50.004;8.246;2024-01-30T02:21:15;0.60;99.90
10702;DHT22;5402;50.004;8.246;2024-01-30T02:23:43;0.60;99.90
10702;DHT22;5402;50.004;8.246;2024-01-30T02:26:10;0.70;99.90
10702;DHT22;5402;50.004;8.246;2024-01-30T02:28:37;0.70;99.90
10702;DHT22;5402;50.004;8.246;2024-01-30T02:31:04;0.70;99.90
10702;DHT22;5402;50.004;8.246;2024-01-30T02:33:31;0.60;99.90
10702;DHT22;5402;50.004;8.246;2024-01-30T02:35:58;0.60;99.90
10702;DHT22;5402;50.004;8.246;2024-01-30T02:38:26;0.50;99.90
10702;DHT22;5402;50.004;8.246;2024-01-30T02:40:54;0.50;99.90
10702;DHT22;5402;50.004;8.246;2024-01-30T02:43:23;0.50;99.90
10702;DHT22;5402;50.004;8.246;2024-01-30T02:45:50;0.40;99.90
10702;DHT22;5402;50.004;8.246;2024-01-30T02:48:16;0.30;99.90
10702;DHT22;5402;50.004;8.246;2024-01-30T02:50:43;0.30;99.90
10702;DHT22;5402;50.004;8.246;2024-01-30T02:53:10;0.30;99.90
10702;DHT22;5402;50.004;8.246;2024-01-30T02:55:38;0.20;99.90
10702;DHT22;5402;50.004;8.246;2024-01-30T02:58:04;0.20;99.90
10702;DHT22;5402;50.004;8.246;2024-01-30T03:00:31;0.20;99.90
10702;DHT22;5402;50.004;8.246;2024-01-30T03:02:58;0.20;99.90
10702;DHT22;5402;50.004;8.246;2024-01-30T03:05:24;0.20;99.90
10702;DHT22;5402;50.004;8.246;2024-01-30T03:07:51;0.20;99.90
10702;DHT22;5402;50.004;8.246;2024-01-30T03:10:18;0.20;99.90
10702;DHT22;5402;50.004;8.246;2024-01-30T03:12:46;0.20;99.90
10702;DHT22;5402;50.004;8.246;2024-01-30T03:15:13;0.20;99.90
10702;DHT22;5402;50.004;8.246;2024-01-30T03:17:40;0.20;99.90
10702;DHT22;5402;50.004;8.246;2024-01-30T03:20:08;0.30;99.90
10702;DHT22;5402;50.004;8.246;2024-01-30T03:22:35;0.30;99.90
10702;DHT22;5402;50.004;8.246;2024-01-30T03:25:02;0.30;99.90
10702;DHT22;5402;50.004;8.246;2024-01-30T03:27:29;0.40;99.90
10702;DHT22;5402;50.004;8.246;2024-01-30T03:29:57;0.30;99.90
10702;DHT22;5402;50.004;8.246;2024-01-30T03:32:24;0.30;99.90
10702;DHT22;5402;50.004;8.246;2024-01-30T03:34:50;0.30;99.90
10702;DHT22;5402;50.004;8.246;2024-01-30T03:37:17;0.40;99.90
10702;DHT22;5402;50.004;8.246;2024-01-30T03:39:44;0.40;99.90
10702;DHT22;5402;50.004;8.246;2024-01-30T03:42:10;0.40;99.90
10702;DHT22;5402;50.004;8.246;2024-01-30T03:44:37;0.30;99.90
10702;DHT22;5402;50.004;8.246;2024-01-30T03:47:05;0.40;99.90
10702;DHT22;5402;50.004;8.246;2024-01-30T03:49:32;0.40;99.90
10702;DHT22;5402;50.004;8.246;2024-01-30T03:51:58;0.30;99.90
10702;DHT22;5402;50.004;8.246;2024-01-30T03:54:27;0.40;99.90
10702;DHT22;5402;50.004;8.246;2024-01-30T03:56:54;0.30;99.90
10702;DHT22;5402;50.004;8.246;2024-01-30T03:59:20;0.30;99.90
10702;DHT22;5402;50.004;8.246;2024-01-30T04:01:49;0.20;99.90
10702;DHT22;5402;50.004;8.246;2024-01-30T04:04:18;0.30;99.90
10702;DHT22;5402;50.004;8.246;2024-01-30T04:06:45;0.30;99.90
10702;DHT22;5402;50.004;8.246;2024-01-30T04:09:12;0.30;99.90
10702;DHT22;5402;50.004;8.246;2024-01-30T04:11:40;0.30;99.90
10702;DHT22;5402;50.004;8.246;2024-01-30T04:14:07;0.30;99.90
10702;DHT22;5402;50.004;8.246;2024-01-30T04:16:34;0.30;99.90
10702;DHT22;5402;50.004;8.246;2024-01-30T04:19:01;0.30;99.90
10702;DHT22;5402;50.004;8.246;2024-01-30T04:21:29;0.30;99.90
10702;DHT22;5402;50.004;8.246;2024-01-30T04:23:56;0.30;99.90
10702;DHT22;5402;50.004;8.246;2024-01-30T04:26:24;0.30;99.90
10702;DHT22;5402;50.004;8.246;2024-01-30T04:28:51;0.30;99.90
10702;DHT22;5402;50.004;8.246;2024-01-30T04:31:17;0.20;99.90
10702;DHT22;5402;50.004;8.246;2024-01-30T04:33:44;0.20;99.90
10702;DHT22;5402;50.004;8.246;2024-01-30T04:36:11;0.10;99.90
10702;DHT22;5402;50.004;8.246;2024-01-30T04:38:39;1.30;99.90
10702;DHT22;5402;50.004;8.246;2024-01-30T04:41:06;0.20;99.90
10702;DHT22;5402;50.004;8.246;2024-01-30T04:43:32;0.20;99.90
10702;DHT22;5402;50.004;8.246;2024-01-30T04:45:59;0.10;99.90
10702;DHT22;5402;50.004;8.246;2024-01-30T04:48:26;0.10;99.90
10702;DHT22;5402;50.004;8.246;2024-01-30T04:50:52;0.10;99.90
10702;DHT22;5402;50.004;8.246;2024-01-30T04:53:19;0.10;99.90
10702;DHT22;5402;50.004;8.246;2024-01-30T04:55:47;0.10;99.90
10702;DHT22;5402;50.004;8.246;2024-01-30T04:58:14;0.10;99.90
10702;DHT22;5402;50.004;8.246;2024-01-30T05:00:41;0.10;99.90
10702;DHT22;5402;50.004;8.246;2024-01-30T05:03:08;0.10;99.90
10702;DHT22;5402;50.004;8.246;2024-01-30T05:05:34;0.10;99.90
10702;DHT22;5402;50.004;8.246;2024-01-30T05:08:01;0.10;99.90
10702;DHT22;5402;50.004;8.246;2024-01-30T05:10:28;0.10;99.90
10702;DHT22;5402;50.004;8.246;2024-01-30T05:12:56;0.10;99.90
10702;DHT22;5402;50.004;8.246;2024-01-30T05:15:23;0.00;99.90
10702;DHT22;5402;50.004;8.246;2024-01-30T05:17:49;0.00;99.90
10702;DHT22;5402;50.004;8.246;2024-01-30T05:20:16;0.00;99.90
10702;DHT22;5402;50.004;8.246;2024-01-30T05:22:43;0.00;99.90
10702;DHT22;5402;50.004;8.246;2024-01-30T05:25:11;0.00;99.90
10702;DHT22;5402;50.004;8.246;2024-01-30T05:27:38;1.20;99.90
10702;DHT22;5402;50.004;8.246;2024-01-30T05:30:07;0.00;99.90
10702;DHT22;5402;50.004;8.246;2024-01-30T05:32:34;0.00;99.90
10702;DHT22;5402;50.004;8.246;2024-01-30T05:35:01;0.10;99.90
10702;DHT22;5402;50.004;8.246;2024-01-30T05:37:28;0.10;99.90
10702;DHT22;5402;50.004;8.246;2024-01-30T05:39:54;0.10;99.90
10702;DHT22;5402;50.004;8.246;2024-01-30T05:42:21;0.10;99.90
10702;DHT22;5402;50.004;8.246;2024-01-30T05:44:48;0.00;99.90
10702;DHT22;5402;50.004;8.246;2024-01-30T05:47:16;0.00;99.90
10702;DHT22;5402;50.004;8.246;2024-01-30T05:49:42;0.00;99.90
10702;DHT22;5402;50.004;8.246;2024-01-30T05:52:09;0.00;99.90
10702;DHT22;5402;50.004;8.246;2024-01-30T05:54:36;0.00;99.90
10702;DHT22;5402;50.004;8.246;2024-01-30T05:57:03;0.00;99.90
10702;DHT22;5402;50.004;8.246;2024-01-30T05:59:30;0.00;99.90
10702;DHT22;5402;50.004;8.246;2024-01-30T06:01:56;0.00;99.90
10702;DHT22;5402;50.004;8.246;2024-01-30T06:04:24;0.00;99.90
10702;DHT22;5402;50.004;8.246;2024-01-30T06:06:51;0.10;99.90
10702;DHT22;5402;50.004;8.246;2024-01-30T06:09:18;0.10;99.90
10702;DHT22;5402;50.004;8.246;2024-01-30T06:11:45;0.10;99.90
10702;DHT22;5402;50.004;8.246;2024-01-30T06:14:12;0.10;99.90
10702;DHT22;5402;50.004;8.246;2024-01-30T06:16:38;0.10;99.90
10702;DHT22;5402;50.004;8.246;2024-01-30T06:19:05;0.00;99.90
10702;DHT22;5402;50.004;8.246;2024-01-30T06:21:33;0.00;99.90
10702;DHT22;5402;50.004;8.246;2024-01-30T06:24:02;0.00;99.90
10702;DHT22;5402;50.004;8.246;2024-01-30T06:26:29;-0.10;99.90
10702;DHT22;5402;50.004;8.246;2024-01-30T06:28:56;-0.10;99.90
10702;DHT22;5402;50.004;8.246;2024-01-30T06:31:23;-0.20;99.90
10702;DHT22;5402;50.004;8.246;2024-01-30T06:33:50;-0.20;99.90
10702;DHT22;5402;50.004;8.246;2024-01-30T06:36:16;-0.10;99.90
10702;DHT22;5402;50.004;8.246;2024-01-30T06:38:46;-0.10;99.90
10702;DHT22;5402;50.004;8.246;2024-01-30T06:41:13;-0.10;99.90
10702;DHT22;5402;50.004;8.246;2024-01-30T06:43:39;-0.10;99.90
10702;DHT22;5402;50.004;8.246;2024-01-30T06:46:06;-0.10;99.90
10702;DHT22;5402;50.004;8.246;2024-01-30T06:48:33;-0.20;99.90
10702;DHT22;5402;50.004;8.246;2024-01-30T06:51:00;-0.20;99.90
10702;DHT22;5402;50.004;8.246;2024-01-30T06:53:27;-0.10;99.90
10702;DHT22;5402;50.004;8.246;2024-01-30T06:55:55;-0.10;99.90
10702;DHT22;5402;50.004;8.246;2024-01-30T06:58:21;-0.10;99.90
10702;DHT22;5402;50.004;8.246;2024-01-30T07:00:48;0.00;99.90
10702;DHT22;5402;50.004;8.246;2024-01-30T07:03:15;0.00;99.90
10702;DHT22;5402;50.004;8.246;2024-01-30T07:05:42;0.10;99.90
10702;DHT22;5402;50.004;8.246;2024-01-30T07:08:09;0.10;99.90
10702;DHT22;5402;50.004;8.246;2024-01-30T07:10:35;0.10;99.90
10702;DHT22;5402;50.004;8.246;2024-01-30T07:13:04;0.10;99.90
10702;DHT22;5402;50.004;8.246;2024-01-30T07:15:31;0.10;99.90
10702;DHT22;5402;50.004;8.246;2024-01-30T07:17:58;0.10;99.90
10702;DHT22;5402;50.004;8.246;2024-01-30T07:20:25;0.10;99.90
10702;DHT22;5402;50.004;8.246;2024-01-30T07:22:51;0.20;99.90
10702;DHT22;5402;50.004;8.246;2024-01-30T07:25:18;0.20;99.90
10702;DHT22;5402;50.004;8.246;2024-01-30T07:27:45;0.20;99.90
10702;DHT22;5402;50.004;8.246;2024-01-30T07:30:13;0.10;99.90
10702;DHT22;5402;50.004;8.246;2024-01-30T07:32:42;0.10;99.90
10702;DHT22;5402;50.004;8.246;2024-01-30T07:35:09;0.10;99.90
10702;DHT22;5402;50.004;8.246;2024-01-30T07:37:37;0.10;99.90
10702;DHT22;5402;50.004;8.246;2024-01-30T07:40:05;0.10;99.90
10702;DHT22;5402;50.004;8.246;2024-01-30T07:42:34;0.10;99.90
10702;DHT22;5402;50.004;8.246;2024-01-30T07:45:01;0.00;99.90
10702;DHT22;5402;50.004;8.246;2024-01-30T07:47:30;0.10;99.90
10702;DHT22;5402;50.004;8.246;2024-01-30T07:49:59;0.10;99.90
10702;DHT22;5402;50.004;8.246;2024-01-30T07:52:26;0.30;99.90
10702;DHT22;5402;50.004;8.246;2024-01-30T07:54:54;0.40;99.90
10702;DHT22;5402;50.004;8.246;2024-01-30T07:57:22;0.50;99.90
10702;DHT22;5402;50.004;8.246;2024-01-30T07:59:50;0.50;99.90
10702;DHT22;5402;50.004;8.246;2024-01-30T08:02:17;0.60;99.90
10702;DHT22;5402;50.004;8.246;2024-01-30T08:04:45;0.60;99.90
10702;DHT22;5402;50.004;8.246;2024-01-30T08:07:14;0.70;99.90
10702;DHT22;5402;50.004;8.246;2024-01-30T08:09:41;0.70;99.90
10702;DHT22;5402;50.004;8.246;2024-01-30T08:12:07;0.80;99.90
10702;DHT22;5402;50.004;8.246;2024-01-30T08:14:34;1.00;99.90
10702;DHT22;5402;50.004;8.246;2024-01-30T08:17:01;1.10;99.90
10702;DHT22;5402;50.004;8.246;2024-01-30T08:19:28;1.20;99.90
10702;DHT22;5402;50.004;8.246;2024-01-30T08:21:56;1.30;99.90
10702;DHT22;5402;50.004;8.246;2024-01-30T08:24:23;1.40;99.90
10702;DHT22;5402;50.004;8.246;2024-01-30T08:26:49;1.50;99.90
10702;DHT22;5402;50.004;8.246;2024-01-30T08:29:17;1.50;99.90
10702;DHT22;5402;50.004;8.246;2024-01-30T08:31:44;1.60;99.90
10702;DHT22;5402;50.004;8.246;2024-01-30T08:34:11;1.70;99.90
10702;DHT22;5402;50.004;8.246;2024-01-30T08:36:38;1.70;99.90
10702;DHT22;5402;50.004;8.246;2024-01-30T08:39:06;1.70;99.90
10702;DHT22;5402;50.004;8.246;2024-01-30T08:41:33;1.70;99.90
10702;DHT22;5402;50.004;8.246;2024-01-30T08:44:00;1.80;99.90
10702;DHT22;5402;50.004;8.246;2024-01-30T08:46:26;1.80;99.90
10702;DHT22;5402;50.004;8.246;2024-01-30T08:48:53;1.80;99.90
10702;DHT22;5402;50.004;8.246;2024-01-30T08:51:20;1.90;99.90
10702;DHT22;5402;50.004;8.246;2024-01-30T08:53:47;1.90;99.90
10702;DHT22;5402;50.004;8.246;2024-01-30T08:56:15;2.00;99.90
10702;DHT22;5402;50.004;8.246;2024-01-30T08:58:42;2.10;99.90
10702;DHT22;5402;50.004;8.246;2024-01-30T09:01:09;2.20;99.90
10702;DHT22;5402;50.004;8.246;2024-01-30T09:03:35;2.30;99.90
10702;DHT22;5402;50.004;8.246;2024-01-30T09:06:08;2.30;99.90
10702;DHT22;5402;50.004;8.246;2024-01-30T09:08:34;2.30;99.90
10702;DHT22;5402;50.004;8.246;2024-01-30T09:11:02;2.40;99.90
10702;DHT22;5402;50.004;8.246;2024-01-30T09:13:32;2.40;99.90
10702;DHT22;5402;50.004;8.246;2024-01-30T09:15:58;3.00;99.90
10702;DHT22;5402;50.004;8.246;2024-01-30T09:18:25;2.60;99.90
10702;DHT22;5402;50.004;8.246;2024-01-30T09:20:54;2.60;99.90
10702;DHT22;5402;50.004;8.246;2024-01-30T09:23:21;2.70;99.90
10702;DHT22;5402;50.004;8.246;2024-01-30T09:25:47;2.80;99.90
10702;DHT22;5402;50.004;8.246;2024-01-30T09:28:14;2.80;99.90
10702;DHT22;5402;50.004;8.246;2024-01-30T09:30:42;2.90;99.90
10702;DHT22;5402;50.004;8.246;2024-01-30T09:33:09;3.50;99.90
10702;DHT22;5402;50.004;8.246;2024-01-30T09:35:36;3.00;99.90
10702;DHT22;5402;50.004;8.246;2024-01-30T09:38:03;3.10;99.90
10702;DHT22;5402;50.004;8.246;2024-01-30T09:40:30;3.10;99.90
10702;DHT22;5402;50.004;8.246;2024-01-30T09:42:59;3.10;99.90
10702;DHT22;5402;50.004;8.246;2024-01-30T09:45:26;3.20;99.90
10702;DHT22;5402;50.004;8.246;2024-01-30T09:47:54;3.20;99.90
10702;DHT22;5402;50.004;8.246;2024-01-30T09:50:21;3.20;99.90
10702;DHT22;5402;50.004;8.246;2024-01-30T09:52:48;3.10;99.90
10702;DHT22;5402;50.004;8.246;2024-01-30T09:55:16;3.40;99.90
10702;DHT22;5402;50.004;8.246;2024-01-30T09:57:43;3.20;99.90
10702;DHT22;5402;50.004;8.246;2024-01-30T10:00:11;3.20;99.90
10702;DHT22;5402;50.004;8.246;2024-01-30T10:02:38;3.30;99.90
10702;DHT22;5402;50.004;8.246;2024-01-30T10:05:08;3.30;99.90
10702;DHT22;5402;50.004;8.246;2024-01-30T10:07:35;3.40;99.90
10702;DHT22;5402;50.004;8.246;2024-01-30T10:10:02;3.50;99.90
10702;DHT22;5402;50.004;8.246;2024-01-30T10:12:29;3.60;99.90
10702;DHT22;5402;50.004;8.246;2024-01-30T10:14:56;3.60;99.90
10702;DHT22;5402;50.004;8.246;2024-01-30T10:17:25;3.60;99.90
10702;DHT22;5402;50.004;8.246;2024-01-30T10:19:52;3.60;99.90
10702;DHT22;5402;50.004;8.246;2024-01-30T10:22:20;3.70;99.90
10702;DHT22;5402;50.004;8.246;2024-01-30T10:24:48;4.00;99.90
10702;DHT22;5402;50.004;8.246;2024-01-30T10:27:15;3.90;99.90
10702;DHT22;5402;50.004;8.246;2024-01-30T10:29:42;4.30;99.90
10702;DHT22;5402;50.004;8.246;2024-01-30T10:32:09;4.00;99.90
10702;DHT22;5402;50.004;8.246;2024-01-30T10:34:36;4.80;99.90
10702;DHT22;5402;50.004;8.246;2024-01-30T10:37:08;4.20;99.90
10702;DHT22;5402;50.004;8.246;2024-01-30T10:39:43;4.50;99.90
10702;DHT22;5402;50.004;8.246;2024-01-30T10:42:12;4.40;99.90
10702;DHT22;5402;50.004;8.246;2024-01-30T10:44:45;4.30;99.90
10702;DHT22;5402;50.004;8.246;2024-01-30T10:47:13;4.40;99.90
10702;DHT22;5402;50.004;8.246;2024-01-30T10:49:45;4.40;99.90
10702;DHT22;5402;50.004;8.246;2024-01-30T10:52:14;4.40;99.90
10702;DHT22;5402;50.004;8.246;2024-01-30T10:54:44;4.60;99.90
10702;DHT22;5402;50.004;8.246;2024-01-30T10:57:12;5.30;99.90
10702;DHT22;5402;50.004;8.246;2024-01-30T10:59:40;4.70;99.90
10702;DHT22;5402;50.004;8.246;2024-01-30T11:02:07;5.70;99.90
10702;DHT22;5402;50.004;8.246;2024-01-30T11:04:39;4.80;99.90
10702;DHT22;5402;50.004;8.246;2024-01-30T11:07:18;4.90;99.90
10702;DHT22;5402;50.004;8.246;2024-01-30T11:09:51;5.00;99.90
10702;DHT22;5402;50.004;8.246;2024-01-30T11:12:22;5.10;99.90
10702;DHT22;5402;50.004;8.246;2024-01-30T11:14:49;5.20;99.90
10702;DHT22;5402;50.004;8.246;2024-01-30T11:17:18;5.20;99.90
10702;DHT22;5402;50.004;8.246;2024-01-30T11:19:46;5.20;99.90
10702;DHT22;5402;50.004;8.246;2024-01-30T11:22:13;5.20;99.90
10702;DHT22;5402;50.004;8.246;2024-01-30T11:24:40;5.30;99.90
10702;DHT22;5402;50.004;8.246;2024-01-30T11:27:09;5.30;99.90
10702;DHT22;5402;50.004;8.246;2024-01-30T11:29:36;5.30;99.90
10702;DHT22;5402;50.004;8.246;2024-01-30T11:32:04;5.40;99.90
10702;DHT22;5402;50.004;8.246;2024-01-30T11:34:32;5.30;99.90
10702;DHT22;5402;50.004;8.246;2024-01-30T11:37:03;5.40;99.90
10702;DHT22;5402;50.004;8.246;2024-01-30T11:39:30;5.40;99.90
10702;DHT22;5402;50.004;8.246;2024-01-30T11:41:57;5.40;99.90
10702;DHT22;5402;50.004;8.246;2024-01-30T11:44:26;5.40;99.90
10702;DHT22;5402;50.004;8.246;2024-01-30T11:46:53;5.30;99.90
10702;DHT22;5402;50.004;8.246;2024-01-30T11:49:19;5.40;99.90
10702;DHT22;5402;50.004;8.246;2024-01-30T11:51:46;5.40;99.90
10702;DHT22;5402;50.004;8.246;2024-01-30T11:54:14;5.40;99.90
10702;DHT22;5402;50.004;8.246;2024-01-30T11:56:42;5.40;99.90
10702;DHT22;5402;50.004;8.246;2024-01-30T11:59:09;5.50;99.90
10702;DHT22;5402;50.004;8.246;2024-01-30T12:01:37;5.50;99.90
10702;DHT22;5402;50.004;8.246;2024-01-30T12:04:04;5.50;99.90
10702;DHT22;5402;50.004;8.246;2024-01-30T12:06:34;5.60;99.90
10702;DHT22;5402;50.004;8.246;2024-01-30T12:09:02;5.60;99.90
10702;DHT22;5402;50.004;8.246;2024-01-30T12:11:30;5.70;99.90
10702;DHT22;5402;50.004;8.246;2024-01-30T12:13:57;5.70;99.90
10702;DHT22;5402;50.004;8.246;2024-01-30T12:16:24;5.70;99.90
10702;DHT22;5402;50.004;8.246;2024-01-30T12:18:59;5.70;99.90
10702;DHT22;5402;50.004;8.246;2024-01-30T12:21:26;5.80;99.90
10702;DHT22;5402;50.004;8.246;2024-01-30T12:23:53;5.80;99.90
10702;DHT22;5402;50.004;8.246;2024-01-30T12:26:20;6.00;99.90
10702;DHT22;5402;50.004;8.246;2024-01-30T12:28:50;6.00;99.90
10702;DHT22;5402;50.004;8.246;2024-01-30T12:31:17;6.10;99.90
10702;DHT22;5402;50.004;8.246;2024-01-30T12:33:44;6.10;99.90
10702;DHT22;5402;50.004;8.246;2024-01-30T12:36:12;6.20;99.90
10702;DHT22;5402;50.004;8.246;2024-01-30T12:38:39;6.90;99.90
10702;DHT22;5402;50.004;8.246;2024-01-30T12:41:07;6.40;99.90
10702;DHT22;5402;50.004;8.246;2024-01-30T12:43:37;6.40;99.90
10702;DHT22;5402;50.004;8.246;2024-01-30T12:46:04;6.50;99.90
10702;DHT22;5402;50.004;8.246;2024-01-30T12:48:31;6.50;99.90
10702;DHT22;5402;50.004;8.246;2024-01-30T12:50:58;6.50;99.90
10702;DHT22;5402;50.004;8.246;2024-01-30T12:53:26;6.60;99.90
10702;DHT22;5402;50.004;8.246;2024-01-30T12:55:53;6.60;99.90
10702;DHT22;5402;50.004;8.246;2024-01-30T12:58:20;6.60;99.90
10702;DHT22;5402;50.004;8.246;2024-01-30T13:00:47;6.70;99.90
10702;DHT22;5402;50.004;8.246;2024-01-30T13:03:13;6.70;99.90
10702;DHT22;5402;50.004;8.246;2024-01-30T13:05:40;6.70;99.90
10702;DHT22;5402;50.004;8.246;2024-01-30T13:08:07;6.80;99.90
10702;DHT22;5402;50.004;8.246;2024-01-30T13:10:35;6.80;99.90
10702;DHT22;5402;50.004;8.246;2024-01-30T13:13:02;6.80;99.90
10702;DHT22;5402;50.004;8.246;2024-01-30T13:15:29;6.80;99.90
10702;DHT22;5402;50.004;8.246;2024-01-30T13:17:56;6.90;99.90
10702;DHT22;5402;50.004;8.246;2024-01-30T13:20:23;6.90;99.90
10702;DHT22;5402;50.004;8.246;2024-01-30T13:22:49;7.00;99.90
10702;DHT22;5402;50.004;8.246;2024-01-30T13:25:16;7.00;99.90
10702;DHT22;5402;50.004;8.246;2024-01-30T13:27:46;7.10;99.90
10702;DHT22;5402;50.004;8.246;2024-01-30T13:30:13;7.10;99.90
10702;DHT22;5402;50.004;8.246;2024-01-30T13:32:40;7.20;99.90
10702;DHT22;5402;50.004;8.246;2024-01-30T13:35:09;7.20;99.90
10702;DHT22;5402;50.004;8.246;2024-01-30T13:37:36;7.20;99.90
10702;DHT22;5402;50.004;8.246;2024-01-30T13:40:04;7.30;99.90
10702;DHT22;5402;50.004;8.246;2024-01-30T13:42:32;7.30;99.90
10702;DHT22;5402;50.004;8.246;2024-01-30T13:45:00;7.30;99.90
10702;DHT22;5402;50.004;8.246;2024-01-30T13:47:27;7.30;99.90
10702;DHT22;5402;50.004;8.246;2024-01-30T13:49:55;7.30;99.90
10702;DHT22;5402;50.004;8.246;2024-01-30T13:52:21;7.30;99.90
10702;DHT22;5402;50.004;8.246;2024-01-30T13:54:48;7.30;99.90
10702;DHT22;5402;50.004;8.246;2024-01-30T13:57:15;7.30;99.90
10702;DHT22;5402;50.004;8.246;2024-01-30T13:59:42;7.30;99.90
10702;DHT22;5402;50.004;8.246;2024-01-30T14:02:10;7.30;99.90
10702;DHT22;5402;50.004;8.246;2024-01-30T14:04:37;7.30;99.90
10702;DHT22;5402;50.004;8.246;2024-01-30T14:07:04;7.30;99.90
10702;DHT22;5402;50.004;8.246;2024-01-30T14:09:35;7.20;99.90
10702;DHT22;5402;50.004;8.246;2024-01-30T14:12:02;7.30;99.90
10702;DHT22;5402;50.004;8.246;2024-01-30T14:14:29;7.30;99.90
10702;DHT22;5402;50.004;8.246;2024-01-30T14:16:55;7.30;99.90
10702;DHT22;5402;50.004;8.246;2024-01-30T14:19:24;7.30;99.90
10702;DHT22;5402;50.004;8.246;2024-01-30T14:21:52;7.30;99.90
10702;DHT22;5402;50.004;8.246;2024-01-30T14:24:18;8.00;99.90
10702;DHT22;5402;50.004;8.246;2024-01-30T14:26:45;7.30;99.90
10702;DHT22;5402;50.004;8.246;2024-01-30T14:29:12;7.30;99.90
10702;DHT22;5402;50.004;8.246;2024-01-30T14:31:39;7.20;99.90
10702;DHT22;5402;50.004;8.246;2024-01-30T14:34:06;7.20;99.90
10702;DHT22;5402;50.004;8.246;2024-01-30T14:36:35;7.20;99.90
10702;DHT22;5402;50.004;8.246;2024-01-30T14:39:02;7.30;99.90
10702;DHT22;5402;50.004;8.246;2024-01-30T14:41:29;7.20;99.90
10702;DHT22;5402;50.004;8.246;2024-01-30T14:43:55;7.20;99.90
10702;DHT22;5402;50.004;8.246;2024-01-30T14:46:22;7.20;99.90
10702;DHT22;5402;50.004;8.246;2024-01-30T14:48:49;7.20;99.90
10702;DHT22;5402;50.004;8.246;2024-01-30T14:51:16;7.20;99.90
10702;DHT22;5402;50.004;8.246;2024-01-30T14:53:44;7.20;99.90
10702;DHT22;5402;50.004;8.246;2024-01-30T14:56:11;7.20;99.90
10702;DHT22;5402;50.004;8.246;2024-01-30T14:58:38;7.20;99.90
10702;DHT22;5402;50.004;8.246;2024-01-30T15:01:05;7.20;99.90
10702;DHT22;5402;50.004;8.246;2024-01-30T15:03:32;7.20;99.90
10702;DHT22;5402;50.004;8.246;2024-01-30T15:06:01;7.20;99.90
10702;DHT22;5402;50.004;8.246;2024-01-30T15:08:31;7.20;99.90
10702;DHT22;5402;50.004;8.246;2024-01-30T15:11:00;7.20;99.90
10702;DHT22;5402;50.004;8.246;2024-01-30T15:13:29;7.10;99.90
10702;DHT22;5402;50.004;8.246;2024-01-30T15:15:56;7.10;99.90
10702;DHT22;5402;50.004;8.246;2024-01-30T15:18:24;7.10;99.90
10702;DHT22;5402;50.004;8.246;2024-01-30T15:20:50;7.10;99.90
10702;DHT22;5402;50.004;8.246;2024-01-30T15:23:17;7.10;99.90
10702;DHT22;5402;50.004;8.246;2024-01-30T15:25:44;7.00;99.90
10702;DHT22;5402;50.004;8.246;2024-01-30T15:28:12;7.00;99.90
10702;DHT22;5402;50.004;8.246;2024-01-30T15:30:40;7.00;99.90
10702;DHT22;5402;50.004;8.246;2024-01-30T15:33:08;7.00;99.90
10702;DHT22;5402;50.004;8.246;2024-01-30T15:35:35;7.10;99.90
10702;DHT22;5402;50.004;8.246;2024-01-30T15:38:03;7.00;99.90
10702;DHT22;5402;50.004;8.246;2024-01-30T15:40:35;7.00;99.90
10702;DHT22;5402;50.004;8.246;2024-01-30T15:43:01;7.00;99.90
10702;DHT22;5402;50.004;8.246;2024-01-30T15:45:29;7.30;99.90
10702;DHT22;5402;50.004;8.246;2024-01-30T15:47:57;7.00;99.90
10702;DHT22;5402;50.004;8.246;2024-01-30T15:50:27;7.00;99.90
10702;DHT22;5402;50.004;8.246;2024-01-30T15:52:54;6.90;99.90
10702;DHT22;5402;50.004;8.246;2024-01-30T15:55:21;6.90;99.90
10702;DHT22;5402;50.004;8.246;2024-01-30T15:57:48;6.90;99.90
10702;DHT22;5402;50.004;8.246;2024-01-30T16:00:17;7.00;99.90
10702;DHT22;5402;50.004;8.246;2024-01-30T16:02:45;6.90;99.90